Time;durP1;ratioP1;P1;durP2;ratioP2;P2;SDS_P1;SDS_P2;PMS_P1;PMS_P2;Temp;Humidity;BMP_temperature;BMP_pressure;BME280_temperature;BME280_humidity;BME280_pressure;Samples;Min_cycle;Max_cycle;Signal;HPM_P1;HPM_P2
2021/07/04 00:03:32;;;;;;;;;;;16.90;99.90;;;;;;8167462;29;20257;-65
2021/07/04 00:07:32;;;;;;;;;;;17.00;99.90;;;;;;8189869;28;20288;-65
2021/07/04 00:11:33;;;;;;;;;;;17.00;99.90;;;;;;8191673;29;19910;-65
2021/07/04 00:15:39;;;;;;;;;;;16.80;99.90;;;;;;8191393;28;20346;-65
2021/07/04 00:19:42;;;;;;;;;;;16.90;99.90;;;;;;8191113;28;19937;-64
2021/07/04 00:23:42;;;;;;;;;;;16.90;99.90;;;;;;8177591;28;19907;-64
2021/07/04 00:27:43;;;;;;;;;;;16.80;99.90;;;;;;8158239;28;19915;-64
2021/07/04 00:31:43;;;;;;;;;;;17.00;99.90;;;;;;8159242;28;20288;-65
2021/07/04 00:35:44;;;;;;;;;;;16.80;99.90;;;;;;8185505;28;20001;-64
2021/07/04 00:39:44;;;;;;;;;;;16.80;99.90;;;;;;8192234;29;19914;-65
2021/07/04 00:43:47;;;;;;;;;;;16.80;99.90;;;;;;8183457;29;19946;-65
2021/07/04 00:47:48;;;;;;;;;;;16.80;99.90;;;;;;8163880;29;19915;-65
2021/07/04 00:51:49;;;;;;;;;;;16.80;99.90;;;;;;8163069;29;20345;-65
2021/07/04 00:55:49;;;;;;;;;;;16.70;99.90;;;;;;8164038;28;19911;-65
2021/07/04 00:59:50;;;;;;;;;;;16.60;99.90;;;;;;8164413;29;19906;-65
2021/07/04 01:03:50;;;;;;;;;;;16.50;99.90;;;;;;8163877;29;19913;-65
2021/07/04 01:07:51;;;;;;;;;;;16.40;99.90;;;;;;8164037;28;19911;-65
2021/07/04 01:11:52;;;;;;;;;;;16.30;99.90;;;;;;8164306;28;19914;-66
2021/07/04 01:15:53;;;;;;;;;;;16.30;99.90;;;;;;8162602;28;19915;-66
2021/07/04 01:19:53;;;;;;;;;;;16.30;99.90;;;;;;8164127;28;19918;-65
2021/07/04 01:23:54;;;;;;;;;;;16.40;99.90;;;;;;8163777;28;20423;-65
2021/07/04 01:27:55;;;;;;;;;;;16.60;99.90;;;;;;8163282;28;19934;-65
2021/07/04 01:31:55;;;;;;;;;;;16.70;99.90;;;;;;8163444;28;19911;-65
2021/07/04 01:35:56;;;;;;;;;;;16.60;99.90;;;;;;8190266;28;20388;-65
2021/07/04 01:39:56;;;;;;;;;;;16.60;99.90;;;;;;8194948;29;20510;-65
2021/07/04 01:43:57;;;;;;;;;;;16.50;99.90;;;;;;8194780;29;19915;-65
2021/07/04 01:47:57;;;;;;;;;;;16.50;99.90;;;;;;8193157;28;19944;-65
2021/07/04 01:51:58;;;;;;;;;;;16.60;99.90;;;;;;8193680;28;20490;-65
2021/07/04 01:56:00;;;;;;;;;;;16.50;99.90;;;;;;8163051;29;19907;-63
2021/07/04 02:00:20;;;;;;;;;;;16.50;99.90;;;;;;8162682;28;19922;-63
2021/07/04 02:04:21;;;;;;;;;;;16.80;99.90;;;;;;8176391;28;19906;-63
2021/07/04 02:08:21;;;;;;;;;;;16.70;99.90;;;;;;8193464;29;20407;-63
2021/07/04 02:12:22;;;;;;;;;;;16.60;99.90;;;;;;8194011;29;19917;-63
2021/07/04 02:16:23;;;;;;;;;;;16.70;99.90;;;;;;8192350;28;20307;-63
2021/07/04 02:20:32;;;;;;;;;;;16.70;99.90;;;;;;8208888;28;19914;-63
2021/07/04 02:24:33;;;;;;;;;;;16.70;99.90;;;;;;8173673;28;19954;-63
2021/07/04 02:28:34;;;;;;;;;;;16.70;99.90;;;;;;8161740;28;19914;-63
2021/07/04 02:32:34;;;;;;;;;;;16.70;99.90;;;;;;8162594;28;19953;-63
2021/07/04 02:36:35;;;;;;;;;;;16.60;99.90;;;;;;8193189;28;19912;-63
2021/07/04 02:40:36;;;;;;;;;;;16.60;99.90;;;;;;8208583;28;19911;-63
2021/07/04 02:44:37;;;;;;;;;;;16.60;99.90;;;;;;8193200;28;19916;-63
2021/07/04 02:48:37;;;;;;;;;;;16.50;99.90;;;;;;8192949;29;19910;-63
2021/07/04 02:52:38;;;;;;;;;;;16.60;99.90;;;;;;8188333;29;19950;-63
2021/07/04 02:56:38;;;;;;;;;;;16.50;99.90;;;;;;8161264;28;20013;-63
2021/07/04 03:00:41;;;;;;;;;;;16.60;99.90;;;;;;8161423;28;19907;-63
2021/07/04 03:04:41;;;;;;;;;;;16.50;99.90;;;;;;8178094;28;19914;-63
2021/07/04 03:08:43;;;;;;;;;;;16.40;99.90;;;;;;8192416;29;19906;-63
2021/07/04 03:12:44;;;;;;;;;;;16.40;99.90;;;;;;8192598;28;20005;-63
2021/07/04 03:16:44;;;;;;;;;;;16.40;99.90;;;;;;8192248;28;19930;-63
2021/07/04 03:20:45;;;;;;;;;;;16.40;99.90;;;;;;8192762;29;19906;-63
2021/07/04 03:24:45;;;;;;;;;;;16.50;99.90;;;;;;8170838;29;19995;-63
2021/07/04 03:28:45;;;;;;;;;;;16.50;99.90;;;;;;8160847;28;20013;-63
2021/07/04 03:32:47;;;;;;;;;;;16.60;99.90;;;;;;8163185;28;19907;-63
2021/07/04 03:36:48;;;;;;;;;;;16.60;99.90;;;;;;8192037;28;20343;-63
2021/07/04 03:40:48;;;;;;;;;;;16.50;99.90;;;;;;8192262;29;19907;-63
2021/07/04 03:44:49;;;;;;;;;;;16.80;99.90;;;;;;8192000;28;19911;-64
2021/07/04 03:48:49;;;;;;;;;;;16.60;99.90;;;;;;8191829;29;19906;-63
2021/07/04 03:52:54;;;;;;;;;;;16.50;99.90;;;;;;8185172;29;19906;-63
2021/07/04 03:56:54;;;;;;;;;;;16.50;99.90;;;;;;8159840;29;19911;-63
2021/07/04 04:00:54;;;;;;;;;;;16.60;99.90;;;;;;8160293;28;19949;-63
2021/07/04 04:04:56;;;;;;;;;;;16.60;99.90;;;;;;8178914;28;20365;-63
2021/07/04 04:08:56;;;;;;;;;;;16.80;99.90;;;;;;8191066;29;20400;-63
2021/07/04 04:12:57;;;;;;;;;;;16.90;99.90;;;;;;8190365;29;19956;-63
2021/07/04 04:16:57;;;;;;;;;;;16.90;99.90;;;;;;8216532;23;19930;-64
2021/07/04 04:20:58;;;;;;;;;;;16.90;99.90;;;;;;8196126;28;20400;-64
2021/07/04 04:24:58;;;;;;;;;;;17.20;99.90;;;;;;8195386;28;19925;-64
2021/07/04 04:28:58;;;;;;;;;;;16.90;99.90;;;;;;8164630;28;20452;-64
2021/07/04 04:32:59;;;;;;;;;;;17.00;99.90;;;;;;8165937;28;20377;-64
2021/07/04 04:37:03;;;;;;;;;;;16.90;99.90;;;;;;8163204;29;19926;-66
2021/07/04 04:41:03;;;;;;;;;;;16.90;99.90;;;;;;8163352;28;19919;-66
2021/07/04 04:45:04;;;;;;;;;;;17.10;99.90;;;;;;8156294;28;19915;-66
2021/07/04 04:49:05;;;;;;;;;;;17.10;99.90;;;;;;8154390;28;19911;-66
2021/07/04 04:53:05;;;;;;;63.23;21.47;;;17.30;99.90;;;;;;8159630;28;20498;-66
2021/07/04 04:57:06;;;;;;;;;;;17.50;99.90;;;;;;8157770;28;20038;-66
2021/07/04 05:01:06;;;;;;;;;;;17.50;99.90;;;;;;8161964;29;20001;-67
2021/07/04 05:05:07;;;;;;;;;;;17.60;99.90;;;;;;8157794;28;19914;-68
2021/07/04 05:09:07;;;;;;;;;;;17.90;99.90;;;;;;8155734;28;20412;-69
2021/07/04 05:13:08;;;;;;;;;;;18.10;99.90;;;;;;8162314;28;20177;-68
2021/07/04 05:17:08;;;;;;;;;;;18.50;99.90;;;;;;8158475;28;19914;-69
2021/07/04 05:21:09;;;;;;;;;;;18.80;99.90;;;;;;8178607;28;19953;-67
2021/07/04 05:25:10;;;;;;;;;;;19.20;99.90;;;;;;8161954;28;21460;-68
2021/07/04 05:29:10;;;;;;;;;;;19.00;99.90;;;;;;8147269;28;19941;-70
2021/07/04 05:33:11;;;;;;;;;;;19.20;99.90;;;;;;8149603;28;19966;-65
2021/07/04 05:37:12;;;;;;;;;;;19.40;99.90;;;;;;8158687;29;19910;-69
2021/07/04 05:41:13;;;;;;;;;;;19.20;99.90;;;;;;8162864;28;20009;-68
2021/07/04 05:45:20;;;;;;;;;;;19.40;99.90;;;;;;8160544;28;20445;-67
2021/07/04 05:49:20;;;;;;;;;;;19.50;99.90;;;;;;8159260;28;19942;-69
2021/07/04 05:53:21;;;;;;;;;;;19.80;99.90;;;;;;8161075;28;19915;-67
2021/07/04 05:57:22;;;;;;;;;;;20.00;99.90;;;;;;8159751;28;19930;-69
2021/07/04 06:01:22;;;;;;;;;;;19.70;99.90;;;;;;8149738;28;19915;-67
2021/07/04 06:05:23;;;;;;;;;;;19.60;99.90;;;;;;8154366;28;19918;-66
2021/07/04 06:09:23;;;;;;;;;;;19.60;99.90;;;;;;8160113;28;19968;-68
2021/07/04 06:13:24;;;;;;;;;;;19.60;99.90;;;;;;8161563;28;19933;-68
2021/07/04 06:17:24;;;;;;;;;;;19.60;99.90;;;;;;8159052;28;19969;-68
2021/07/04 06:21:25;;;;;;;;;;;19.30;99.90;;;;;;8176315;28;20010;-68
2021/07/04 06:25:25;;;;;;;;;;;19.20;99.90;;;;;;8161617;28;20147;-68
2021/07/04 06:29:26;;;;;;;;;;;19.00;99.90;;;;;;8158449;29;19910;-68
2021/07/04 06:33:26;;;;;;;;;;;18.90;99.90;;;;;;8159892;29;19914;-66
2021/07/04 06:37:27;;;;;;;;;;;18.80;99.90;;;;;;8159325;29;20331;-68
2021/07/04 06:41:27;;;;;;;;;;;18.90;99.90;;;;;;8140579;29;20293;-67
2021/07/04 06:45:28;;;;;;;;;;;19.10;99.90;;;;;;8130082;29;20508;-67
2021/07/04 06:49:28;;;;;;;;;;;19.60;99.90;;;;;;8129949;29;19914;-67
2021/07/04 06:53:28;;;;;;;;;;;20.20;99.90;;;;;;8155997;29;19907;-69
2021/07/04 06:57:29;;;;;;;;;;;20.40;99.90;;;;;;8156519;28;19911;-68
2021/07/04 07:01:31;;;;;;;;;;;20.40;99.90;;;;;;8129800;28;19907;-68
2021/07/04 07:05:32;;;;;;;;;;;20.10;99.90;;;;;;8169841;29;19915;-67
2021/07/04 07:09:32;;;;;;;;;;;19.70;99.90;;;;;;8159656;28;20468;-68
2021/07/04 07:13:33;;;;;;;;;;;19.70;99.90;;;;;;8160491;28;19922;-69
2021/07/04 07:17:33;;;;;;;;;;;20.20;99.90;;;;;;8157910;29;20393;-63
2021/07/04 07:21:33;;;;;;;;;;;20.60;99.90;;;;;;8164613;28;19911;-64
2021/07/04 07:25:34;;;;;;;;;;;20.70;99.90;;;;;;8159678;29;19938;-63
2021/07/04 07:29:34;;;;;;;;;;;21.10;99.90;;;;;;8153983;28;20341;-63
2021/07/04 07:33:35;;;;;;;;;;;21.30;99.90;;;;;;8168124;28;20373;-63
2021/07/04 07:37:35;;;;;;;;;;;21.40;99.90;;;;;;8166717;29;19911;-63
2021/07/04 07:41:36;;;;;;;;;;;21.30;99.90;;;;;;8160515;29;20616;-64
2021/07/04 07:45:37;;;;;;;;;;;21.60;99.90;;;;;;8210791;28;20427;-64
2021/07/04 07:49:37;;;;;;;;;;;21.90;99.90;;;;;;8210383;28;20539;-63
2021/07/04 07:53:37;;;;;;;;;;;22.30;99.90;;;;;;8184391;28;19985;-63
2021/07/04 07:57:38;;;;;;;;;;;22.90;99.90;;;;;;8165158;28;19922;-63
2021/07/04 08:01:39;;;;;;;;;;;22.50;99.90;;;;;;8164513;29;20392;-63
2021/07/04 08:05:40;;;;;;;;;;;22.00;99.90;;;;;;8166894;29;20056;-63
2021/07/04 08:09:40;;;;;;;;;;;21.60;99.90;;;;;;8192640;28;19911;-63
2021/07/04 08:13:41;;;;;;;;;;;21.00;99.90;;;;;;8166870;28;19957;-63
2021/07/04 08:17:41;;;;;;;;;;;21.10;99.90;;;;;;8154638;28;19915;-63
2021/07/04 08:21:42;;;;;;;;;;;21.70;99.90;;;;;;8135238;29;19914;-63
2021/07/04 08:25:43;;;;;;;;;;;21.80;99.90;;;;;;8152075;28;20367;-63
2021/07/04 08:29:43;;;;;;;;;;;22.40;99.90;;;;;;8159791;29;20591;-63
2021/07/04 08:33:44;;;;;;;;;;;22.70;99.90;;;;;;8172807;29;19950;-63
2021/07/04 08:37:45;;;;;;;;;;;22.70;99.90;;;;;;8165981;28;19911;-63
2021/07/04 08:41:45;;;;;;;;;;;22.20;99.90;;;;;;8164332;28;20463;-64
2021/07/04 08:45:46;;;;;;;;;;;22.20;99.90;;;;;;8163517;28;19918;-63
2021/07/04 08:49:47;;;;;;;;;;;22.60;99.90;;;;;;8164236;29;19918;-63
2021/07/04 08:53:47;;;;;;;;;;;22.70;99.90;;;;;;8163530;28;20296;-64
2021/07/04 08:57:49;;;;;;;;;;;22.40;99.90;;;;;;8163196;29;20001;-64
2021/07/04 09:01:49;;;;;;;;;;;22.40;99.90;;;;;;8161900;29;19906;-63
2021/07/04 09:05:50;;;;;;;;;;;22.50;99.90;;;;;;8185649;28;19915;-63
2021/07/04 09:09:57;;;;;;;;;;;23.10;99.90;;;;;;8163694;28;19911;-64
2021/07/04 09:14:05;;;;;;;;;;;23.40;99.90;;;;;;8163423;28;20005;-64
2021/07/04 09:18:15;;;;;;;;;;;23.80;99.90;;;;;;8157832;28;19915;-63
2021/07/04 09:22:15;;;;;;;;;;;23.80;99.90;;;;;;8156294;29;20377;-64
2021/07/04 09:26:34;;;;;;;;;;;23.90;99.90;;;;;;8148216;28;19956;-64
2021/07/04 09:30:35;;;;;;;;;;;24.30;99.90;;;;;;8159418;28;19917;-64
2021/07/04 09:34:36;;;;;;;;;;;24.10;99.90;;;;;;8156887;28;20427;-64
2021/07/04 09:38:37;;;;;;;;;;;23.80;99.90;;;;;;8161681;28;19940;-63
2021/07/04 09:42:53;;;;;;;;;;;24.00;99.90;;;;;;8161836;29;19917;-63
2021/07/04 09:47:10;;;;;;;;;;;23.90;99.90;;;;;;8161326;29;19972;-64
2021/07/04 09:51:20;;;;;;;;;;;23.80;99.90;;;;;;8161688;28;21358;-64
2021/07/04 09:55:21;;;;;;;64.90;21.95;;;24.50;99.90;;;;;;8154988;28;20395;-64
2021/07/04 09:59:22;;;;;;;;;;;24.60;99.90;;;;;;8174904;28;20081;-63
2021/07/04 10:03:22;;;;;;;55.10;20.10;;;24.40;99.90;;;;;;8167209;28;20821;-63
2021/07/04 10:07:32;;;;;;;;;;;24.10;99.90;;;;;;8193725;28;20069;-63
2021/07/04 10:11:32;;;;;;;55.47;20.33;;;24.20;99.90;;;;;;8190997;28;20422;-63
2021/07/04 10:15:33;;;;;;;;;;;24.60;99.90;;;;;;8193785;28;20054;-64
2021/07/04 10:19:35;;;;;;;45.10;19.20;;;25.60;99.90;;;;;;8161351;29;20436;-63
2021/07/04 10:23:36;;;;;;;;;;;25.70;99.90;;;;;;8158130;29;20047;-64
2021/07/04 10:27:38;;;;;;;;;;;25.60;99.90;;;;;;8145382;29;19915;-64
2021/07/04 10:31:39;;;;;;;;;;;25.10;99.90;;;;;;8148915;28;19914;-65
2021/07/04 10:35:49;;;;;;;;;;;25.30;99.90;;;;;;8159059;28;20365;-64
2021/07/04 10:40:07;;;;;;;;;;;25.10;99.90;;;;;;8145822;28;19964;-64
2021/07/04 10:44:09;;;;;;;;;;;24.60;99.90;;;;;;8133989;29;19911;-64
2021/07/04 10:48:18;;;;;;;;;;;23.60;99.90;;;;;;8143241;28;20347;-63
2021/07/04 10:52:20;;;;;;;;;;;23.10;99.90;;;;;;8160111;28;19910;-63
2021/07/04 10:56:32;;;;;;;;;;;23.10;99.90;;;;;;8172087;29;19918;-63
2021/07/04 11:00:34;;;;;;;;;;;23.00;99.90;;;;;;8159931;29;20430;-66
2021/07/04 11:04:37;;;;;;;;;;;23.90;99.90;;;;;;8177464;29;19921;-67
2021/07/04 11:08:51;;;;;;;;;;;25.00;99.90;;;;;;8190251;28;19913;-66
2021/07/04 11:12:53;;;;;;;;;;;25.90;99.90;;;;;;8172576;29;20362;-67
2021/07/04 11:17:03;;;;;;;;;;;25.80;99.90;;;;;;8157772;28;20432;-68
2021/07/04 11:21:04;;;;;;;;;;;25.60;99.90;;;;;;8156526;29;19969;-63
2021/07/04 11:25:14;;;;;;;;;;;25.50;99.90;;;;;;8148133;29;20642;-63
2021/07/04 11:29:14;;;;;;;;;;;24.90;99.90;;;;;;8126680;29;19907;-64
2021/07/04 11:33:38;;;;;;;;;;;25.00;99.90;;;;;;8147118;28;20424;-63
2021/07/04 11:37:40;;;;;;;58.75;21.92;;;25.00;99.90;;;;;;8157438;28;20282;-63
2021/07/04 11:41:50;;;;;;;;;;;25.60;99.90;;;;;;8159514;29;20055;-64
2021/07/04 11:46:01;;;;;;;45.05;19.20;;;25.40;99.90;;;;;;8174025;28;20835;-64
2021/07/04 11:50:07;;;;;;;;;;;26.40;99.90;;;;;;8159664;29;20444;-63
2021/07/04 11:54:17;;;;;;;;;;;25.30;99.90;;;;;;8156252;28;20490;-63
2021/07/04 11:58:22;;;;;;;;;;;25.30;99.90;;;;;;8158311;28;19933;-63
2021/07/04 12:02:22;;;;;;;;;;;25.60;99.90;;;;;;8159741;28;20360;-64
2021/07/04 12:06:23;;;;;;;;;;;26.50;99.90;;;;;;8156847;28;19925;-63
2021/07/04 12:10:23;;;;;;;;;;;26.80;99.90;;;;;;8158945;28;20289;-63
2021/07/04 12:14:24;;;;;;;;;;;26.50;99.90;;;;;;8154784;28;19985;-63
2021/07/04 12:18:24;;;;;;;;;;;26.70;99.90;;;;;;8158438;29;19922;-64
2021/07/04 12:22:27;;;;;;;;;;;25.90;99.90;;;;;;8158655;29;19922;-63
2021/07/04 12:26:27;;;;;;;;;;;26.00;99.90;;;;;;8157090;28;20416;-63
2021/07/04 12:30:31;;;;;;;;;;;26.90;99.90;;;;;;8153241;28;19919;-63
2021/07/04 12:34:32;;;;;;;;;;;26.90;99.90;;;;;;8155846;29;19911;-72
2021/07/04 12:38:43;;;;;;;;;;;26.10;99.90;;;;;;8163783;28;19918;-73
2021/07/04 12:42:44;;;;;;;;;;;25.60;99.90;;;;;;8164017;28;19941;-72
2021/07/04 12:46:44;;;;;;;;;;;25.60;99.90;;;;;;8164600;28;19911;-71
2021/07/04 12:50:45;;;;;;;;;;;25.50;99.90;;;;;;8164381;28;19934;-72
2021/07/04 12:54:45;;;;;;;;;;;25.30;99.90;;;;;;8163573;28;19910;-72
2021/07/04 12:59:01;;;;;;;;;;;25.00;99.90;;;;;;8161754;28;20377;-71
2021/07/04 13:03:01;;;;;;;;;;;25.00;99.90;;;;;;8156070;28;20362;-72
2021/07/04 13:07:10;;;;;;;;;;;24.70;99.90;;;;;;8160117;28;19922;-73
2021/07/04 13:11:18;;;;;;;;;;;24.90;99.90;;;;;;8177858;28;20285;-73
2021/07/04 13:15:21;;;;;;;;;;;26.00;99.90;;;;;;8148481;28;19919;-73
2021/07/04 13:19:23;;;;;;;;;;;27.10;99.90;;;;;;8177171;28;19947;-73
2021/07/04 13:23:24;;;;;;;;;;;26.70;99.90;;;;;;8162166;28;20031;-72
2021/07/04 13:27:26;;;;;;;;;;;26.80;99.90;;;;;;8162933;28;20014;-71
2021/07/04 13:31:26;;;;;;;;;;;26.40;99.90;;;;;;8170608;28;19937;-72
2021/07/04 13:35:37;;;;;;;;;;;25.50;99.90;;;;;;8158498;29;20005;-74
2021/07/04 13:39:50;;;;;;;;;;;24.90;99.90;;;;;;8163706;28;20384;-75
2021/07/04 13:43:50;;;;;;;;;;;24.40;99.90;;;;;;8162695;28;19911;-75
2021/07/04 13:47:55;;;;;;;;;;;24.30;99.90;;;;;;8175175;28;20033;-72
2021/07/04 13:51:56;;;;;;;;;;;24.30;99.90;;;;;;8162948;28;20357;-72
2021/07/04 13:55:57;;;;;;;;;;;24.30;99.90;;;;;;8162260;28;19911;-72
2021/07/04 13:59:57;;;;;;;;;;;24.00;99.90;;;;;;8157210;28;19914;-73
2021/07/04 14:03:58;;;;;;;;;;;23.90;99.90;;;;;;8172559;28;19917;-72
2021/07/04 14:07:59;;;;;;;;;;;23.70;99.90;;;;;;8176322;28;19924;-73
2021/07/04 14:11:59;;;;;;;;;;;23.40;99.90;;;;;;8162783;28;19922;-74
2021/07/04 14:16:00;;;;;;;;;;;23.20;99.90;;;;;;8162345;29;19914;-72
2021/07/04 14:20:01;;;;;;;;;;;23.10;99.90;;;;;;8161972;28;19930;-72
2021/07/04 14:24:02;;;;;;;;;;;23.10;99.90;;;;;;8161939;28;19910;-71
2021/07/04 14:28:03;;;;;;;;;;;23.30;99.90;;;;;;8159912;28;19915;-71
2021/07/04 14:32:04;;;;;;;;;;;23.20;99.90;;;;;;8158992;28;19965;-64
2021/07/04 14:36:04;;;;;;;;;;;23.20;99.90;;;;;;8165208;28;19911;-64
2021/07/04 14:40:05;;;;;;;;;;;23.10;99.90;;;;;;8148251;29;19911;-65
2021/07/04 14:44:07;;;;;;;;;;;22.70;99.90;;;;;;8154920;29;19954;-64
2021/07/04 14:48:08;;;;;;;;;;;22.70;99.90;;;;;;8136131;28;20377;-64
2021/07/04 14:52:10;;;;;;;;;;;22.60;99.90;;;;;;8157870;28;19917;-64
2021/07/04 14:56:13;;;;;;;;;;;22.50;99.90;;;;;;8155779;28;20005;-64
2021/07/04 15:00:16;;;;;;;;;;;22.50;99.90;;;;;;8156498;29;19915;-63
2021/07/04 15:04:17;;;;;;;;;;;22.50;99.90;;;;;;8152616;28;19923;-63
2021/07/04 15:08:18;;;;;;;;;;;22.40;99.90;;;;;;8156944;28;20340;-64
2021/07/04 15:12:19;;;;;;;;;;;22.20;99.90;;;;;;8155365;29;19950;-64
2021/07/04 15:16:19;;;;;;;;;;;21.90;99.90;;;;;;8157006;29;19953;-64
2021/07/04 15:20:20;;;;;;;;;;;21.80;99.90;;;;;;8157465;29;19914;-64
2021/07/04 15:24:21;;;;;;;;;;;21.80;99.90;;;;;;8156015;28;19922;-63
2021/07/04 15:28:21;;;;;;;;;;;21.60;99.90;;;;;;8143972;28;19914;-63
2021/07/04 15:32:22;;;;;;;;;;;21.70;99.90;;;;;;8138983;28;19914;-64
2021/07/04 15:36:24;;;;;;;;;;;21.60;99.90;;;;;;8175967;28;19919;-63
2021/07/04 15:40:24;;;;;;;;;;;21.60;99.90;;;;;;8155465;28;19950;-63
2021/07/04 15:44:25;;;;;;;;;;;21.50;99.90;;;;;;8171396;28;19922;-63
2021/07/04 15:48:25;;;;;;;;;;;21.40;99.90;;;;;;8155992;29;19914;-63
2021/07/04 15:52:26;;;;;;;;;;;21.30;99.90;;;;;;8146223;29;20474;-63
2021/07/04 15:56:26;;;;;;;;;;;21.20;99.90;;;;;;8140650;28;19915;-63
2021/07/04 16:00:27;;;;;;;;;;;21.00;99.90;;;;;;8139756;28;19914;-63
2021/07/04 16:04:27;;;;;;;;;;;20.70;99.90;;;;;;8147398;28;19911;-64
2021/07/04 16:08:28;;;;;;;;;;;20.60;99.90;;;;;;8156061;28;19915;-63
2021/07/04 16:12:28;;;;;;;;;;;20.50;99.90;;;;;;8160616;28;19911;-63
2021/07/04 16:16:29;;;;;;;;;;;20.40;99.90;;;;;;8161716;29;20340;-63
2021/07/04 16:20:30;;;;;;;;;;;20.20;99.90;;;;;;8160691;28;19911;-63
2021/07/04 16:24:30;;;;;;;;;;;20.10;99.90;;;;;;8161675;28;20369;-63
2021/07/04 16:28:31;;;;;;;;;;;19.40;99.90;;;;;;8160521;29;20514;-63
2021/07/04 16:32:31;;;;;;;;;;;18.60;99.90;;;;;;8162343;29;20481;-63
2021/07/04 16:36:36;;;;;;;;;;;18.10;99.90;;;;;;8162198;29;20006;-62
2021/07/04 16:40:37;;;;;;;6.30;5.90;;;17.70;99.90;;;;;;8159090;29;20452;-62
2021/07/04 16:44:37;;;;;;;;;;;17.00;99.90;;;;;;8160331;28;20039;-62
2021/07/04 16:48:38;;;;;;;;;;;16.60;99.90;;;;;;8186534;23;19961;-67
2021/07/04 16:52:39;;;;;;;;;;;16.50;99.90;;;;;;8184037;28;19918;-67
2021/07/04 16:56:39;;;;;;;;;;;16.30;99.90;;;;;;8184874;28;19915;-67
2021/07/04 17:00:40;;;;;;;;;;;16.30;99.90;;;;;;8152866;28;19915;-67
2021/07/04 17:04:40;;;;;;;;;;;16.30;99.90;;;;;;8162165;28;20431;-66
2021/07/04 17:08:41;;;;;;;;;;;16.30;99.90;;;;;;8158819;28;20388;-68
2021/07/04 17:12:41;;;;;;;;;;;16.10;99.90;;;;;;8145897;28;20285;-67
2021/07/04 17:16:42;;;;;;;;;;;16.00;99.90;;;;;;8172649;28;19914;-68
2021/07/04 17:20:42;;;;;;;;;;;16.00;99.90;;;;;;8159831;28;19914;-68
2021/07/04 17:24:43;;;;;;;;;;;16.10;99.90;;;;;;8158313;28;19973;-68
2021/07/04 17:28:43;;;;;;;;;;;16.00;99.90;;;;;;8155814;28;19919;-68
2021/07/04 17:32:44;;;;;;;;;;;16.10;99.90;;;;;;8147394;28;20751;-68
2021/07/04 17:36:45;;;;;;;;;;;16.30;99.90;;;;;;8142579;29;19914;-67
2021/07/04 17:40:46;;;;;;;;;;;16.30;99.90;;;;;;8143031;28;19921;-67
2021/07/04 17:44:46;;;;;;;;;;;16.20;99.90;;;;;;8143636;28;19914;-66
2021/07/04 17:48:47;;;;;;;;;;;16.30;99.90;;;;;;8141214;28;19915;-67
2021/07/04 17:52:48;;;;;;;;;;;16.30;99.90;;;;;;8152848;28;19985;-67
2021/07/04 17:56:49;;;;;;;;;;;16.40;99.90;;;;;;8156864;28;20422;-68
2021/07/04 18:00:49;;;;;;;;;;;16.40;99.90;;;;;;8158208;28;19973;-68
2021/07/04 18:04:50;;;;;;;;;;;16.20;99.90;;;;;;8161083;28;20443;-68
2021/07/04 18:08:52;;;;;;;;;;;16.30;99.90;;;;;;8154775;29;20310;-67
2021/07/04 18:12:52;;;;;;;;;;;16.20;99.90;;;;;;8142108;28;20010;-67
2021/07/04 18:16:53;;;;;;;;;;;16.10;99.90;;;;;;8148558;28;20500;-67
2021/07/04 18:20:54;;;;;;;;;;;16.20;99.90;;;;;;8144862;29;19918;-66
2021/07/04 18:24:54;;;;;;;;;;;16.30;99.90;;;;;;8145712;28;19911;-67
2021/07/04 18:28:56;;;;;;;;;;;16.30;99.90;;;;;;8148133;28;19949;-68
2021/07/04 18:32:56;;;;;;;;;;;16.40;99.90;;;;;;8148346;28;19960;-68
2021/07/04 18:36:57;;;;;;;;;;;16.40;99.90;;;;;;8193361;28;20404;-68
2021/07/04 18:40:58;;;;;;;;;;;16.30;99.90;;;;;;8162679;28;19918;-68
2021/07/04 18:44:59;;;;;;;;;;;16.40;99.90;;;;;;8134791;28;19940;-69
2021/07/04 18:48:59;;;;;;;;;;;16.30;99.90;;;;;;8136324;29;19919;-68
2021/07/04 18:53:00;;;;;;;;;;;16.20;99.90;;;;;;8134843;29;19954;-67
2021/07/04 18:57:27;;;;;;;;;;;16.20;99.90;;;;;;8152462;28;19915;-64
2021/07/04 19:01:21;;;;;;;;;;;16.10;99.90;;;;;;8166055;28;19915;-67
2021/07/04 19:05:31;;;;;;;;;;;16.10;99.90;;;;;;8130372;28;19919;-66
2021/07/04 19:09:32;;;;;;;;;;;16.20;99.90;;;;;;8134025;29;21313;-68
2021/07/04 19:13:33;;;;;;;;;;;16.10;99.90;;;;;;8140622;28;19915;-68
2021/07/04 19:17:33;;;;;;;;;;;16.10;99.90;;;;;;8145325;29;19915;-68
2021/07/04 19:21:34;;;;;;;;;;;16.10;99.90;;;;;;8145688;28;19961;-67
2021/07/04 19:25:34;;;;;;;;;;;16.00;99.90;;;;;;8155696;28;20069;-68
2021/07/04 19:29:35;;;;;;;;;;;16.00;99.90;;;;;;8155568;28;20351;-67
2021/07/04 19:33:35;;;;;;;;;;;15.90;99.90;;;;;;8156508;28;19910;-67
2021/07/04 19:37:38;;;;;;;;;;;16.00;99.90;;;;;;8155431;29;20296;-66
2021/07/04 19:41:39;;;;;;;;;;;15.80;99.90;;;;;;8155286;29;19915;-66
2021/07/04 19:45:40;;;;;;;;;;;15.90;99.90;;;;;;8154278;28;19919;-66
2021/07/04 19:49:40;;;;;;;;;;;15.90;99.90;;;;;;8161389;28;19976;-67
2021/07/04 19:53:41;;;;;;;;;;;15.90;99.90;;;;;;8155009;28;19997;-68
2021/07/04 19:57:42;;;;;;;;;;;15.80;99.90;;;;;;8167004;28;19911;-68
2021/07/04 20:01:42;;;;;;;;;;;15.70;99.90;;;;;;8150201;28;19919;-67
2021/07/04 20:05:43;;;;;;;;;;;15.60;99.90;;;;;;8153035;29;20413;-68
2021/07/04 20:09:43;;;;;;;;;;;15.60;99.90;;;;;;8155392;28;19922;-67
2021/07/04 20:13:44;;;;;;;;;;;15.50;99.90;;;;;;8154515;28;19972;-67
2021/07/04 20:17:45;;;;;;;;;;;15.50;99.90;;;;;;8154470;29;19914;-68
2021/07/04 20:21:45;;;;;;;;;;;15.50;99.90;;;;;;8156523;28;19921;-67
2021/07/04 20:25:46;;;;;;;;;;;15.60;99.90;;;;;;8131879;29;19911;-68
2021/07/04 20:29:46;;;;;;;;;;;15.50;99.90;;;;;;8125099;29;19915;-67
2021/07/04 20:33:47;;;;;;;23.17;14.20;;;15.40;99.90;;;;;;8137827;28;20499;-68
2021/07/04 20:37:47;;;;;;;;;;;15.40;99.90;;;;;;8149999;28;20507;-67
2021/07/04 20:41:48;;;;;;;;;;;15.40;99.90;;;;;;8127391;29;20571;-67
2021/07/04 20:45:49;;;;;;;;;;;15.40;99.90;;;;;;8127210;29;19915;-67
2021/07/04 20:49:49;;;;;;;;;;;15.40;99.90;;;;;;8126385;29;19919;-67
2021/07/04 20:53:50;;;;;;;;;;;15.40;99.90;;;;;;8139466;28;19911;-67
2021/07/04 20:57:50;;;;;;;;;;;15.40;99.90;;;;;;8161258;28;19906;-67
2021/07/04 21:01:51;;;;;;;;;;;15.40;99.90;;;;;;8163094;28;19907;-67
2021/07/04 21:05:52;;;;;;;;;;;15.40;99.90;;;;;;8190826;28;19911;-67
2021/07/04 21:09:53;;;;;;;;;;;15.40;99.90;;;;;;8195492;28;20442;-67
2021/07/04 21:13:53;;;;;;;;;;;15.40;99.90;;;;;;8195512;28;19907;-68
2021/07/04 21:17:54;;;;;;;;;;;15.40;99.90;;;;;;8195413;28;19907;-67
2021/07/04 21:21:54;;;;;;;;;;;15.30;99.90;;;;;;8195621;29;19906;-67
2021/07/04 21:25:55;;;;;;;;;;;15.20;99.90;;;;;;8164303;28;19933;-67
2021/07/04 21:29:56;;;;;;;;;;;15.20;99.90;;;;;;8163434;28;19918;-67
2021/07/04 21:33:56;;;;;;;;;;;15.10;99.90;;;;;;8175022;28;20020;-67
2021/07/04 21:37:57;;;;;;;;;;;15.10;99.90;;;;;;8194879;28;19910;-67
2021/07/04 21:41:57;;;;;;;;;;;15.00;99.90;;;;;;8195154;29;19960;-68
2021/07/04 21:45:58;;;;;;;;;;;15.00;99.90;;;;;;8192982;29;19957;-67
2021/07/04 21:49:58;;;;;;;;;;;15.00;99.90;;;;;;8193375;28;19925;-67
2021/07/04 21:53:59;;;;;;;;;;;14.80;99.90;;;;;;8179389;28;20002;-67
2021/07/04 21:57:59;;;;;;;;;;;14.80;99.90;;;;;;8163163;28;19929;-67
2021/07/04 22:02:00;;;;;;;;;;;14.70;99.90;;;;;;8163302;28;20403;-67
2021/07/04 22:06:02;;;;;;;;;;;14.70;99.90;;;;;;8190578;28;19911;-67
2021/07/04 22:10:03;;;;;;;;;;;14.60;99.90;;;;;;8193133;28;19907;-67
2021/07/04 22:14:06;;;;;;;;;;;14.60;99.90;;;;;;8194178;29;19932;-67
2021/07/04 22:18:07;;;;;;;;;;;14.60;99.90;;;;;;8193978;28;20368;-67
2021/07/04 22:22:07;;;;;;;;;;;14.60;99.90;;;;;;8193373;29;19911;-67
2021/07/04 22:26:08;;;;;;;;;;;14.50;99.90;;;;;;8162240;28;19911;-67
2021/07/04 22:30:09;;;;;;;;;;;14.50;99.90;;;;;;8162169;28;19965;-68
2021/07/04 22:34:09;;;;;;;;;;;14.50;99.90;;;;;;8175137;28;19906;-67
2021/07/04 22:38:10;;;;;;;;;;;14.40;99.90;;;;;;8193301;28;19917;-67
2021/07/04 22:42:10;;;;;;;;;;;14.40;99.90;;;;;;8193548;29;19924;-67
2021/07/04 22:46:11;;;;;;;;;;;14.40;99.90;;;;;;8209353;28;20137;-67
2021/07/04 22:50:13;;;;;;;;;;;14.30;99.90;;;;;;8294919;23;19962;-65
2021/07/04 22:54:14;;;;;;;;;;;14.40;99.90;;;;;;8341759;28;20004;-65
2021/07/04 22:58:14;;;;;;;;;;;14.30;99.90;;;;;;8358622;28;20302;-65
2021/07/04 23:02:15;;;;;;;;;;;14.20;99.90;;;;;;8324669;28;19982;-65
2021/07/04 23:06:16;;;;;;;;;;;14.20;99.90;;;;;;8354773;28;20373;-65
2021/07/04 23:10:17;;;;;;;;;;;14.20;99.90;;;;;;8335440;28;20421;-65
2021/07/04 23:14:17;;;;;;;;;;;14.30;99.90;;;;;;8324320;28;20295;-65
2021/07/04 23:18:17;;;;;;;;;;;14.40;99.90;;;;;;8324467;28;19905;-65
2021/07/04 23:22:18;;;;;;;;;;;14.40;99.90;;;;;;8324609;28;20604;-65